sensor_id;sensor_type;location;lat;lon;timestamp;temperature;humidity
18648;DHT22;9453;50.294;18.644;2023-07-09T04:02:37;16.60;99.90
18648;DHT22;9453;50.294;18.644;2023-07-09T04:05:05;16.60;99.90
18648;DHT22;9453;50.294;18.644;2023-07-09T04:07:32;16.70;99.90
18648;DHT22;9453;50.294;18.644;2023-07-09T04:09:59;16.80;99.90
18648;DHT22;9453;50.294;18.644;2023-07-09T04:12:26;16.80;99.90
18648;DHT22;9453;50.294;18.644;2023-07-09T04:14:53;16.90;99.90
18648;DHT22;9453;50.294;18.644;2023-07-09T04:17:20;16.90;99.90
18648;DHT22;9453;50.294;18.644;2023-07-09T04:19:50;16.90;99.90
18648;DHT22;9453;50.294;18.644;2023-07-09T04:22:17;16.90;99.90
18648;DHT22;9453;50.294;18.644;2023-07-09T04:24:44;16.90;99.90
18648;DHT22;9453;50.294;18.644;2023-07-09T04:27:13;17.00;99.90
18648;DHT22;9453;50.294;18.644;2023-07-09T04:29:40;17.00;99.90
18648;DHT22;9453;50.294;18.644;2023-07-09T04:32:11;17.20;99.90
18648;DHT22;9453;50.294;18.644;2023-07-09T04:34:39;17.20;99.90
18648;DHT22;9453;50.294;18.644;2023-07-09T04:37:09;17.30;99.90
18648;DHT22;9453;50.294;18.644;2023-07-09T04:39:37;17.30;99.90
18648;DHT22;9453;50.294;18.644;2023-07-09T04:42:05;17.40;99.90
18648;DHT22;9453;50.294;18.644;2023-07-09T04:44:32;17.40;99.90
18648;DHT22;9453;50.294;18.644;2023-07-09T04:46:59;17.50;99.90
18648;DHT22;9453;50.294;18.644;2023-07-09T04:49:26;17.60;99.90
18648;DHT22;9453;50.294;18.644;2023-07-09T04:51:53;17.70;99.90
18648;DHT22;9453;50.294;18.644;2023-07-09T04:54:23;17.80;99.90
18648;DHT22;9453;50.294;18.644;2023-07-09T04:56:50;17.80;99.90
18648;DHT22;9453;50.294;18.644;2023-07-09T04:59:18;17.90;99.70
18648;DHT22;9453;50.294;18.644;2023-07-09T05:01:45;17.90;99.40
18648;DHT22;9453;50.294;18.644;2023-07-09T05:04:12;18.00;98.70
18648;DHT22;9453;50.294;18.644;2023-07-09T05:06:39;18.00;98.00
18648;DHT22;9453;50.294;18.644;2023-07-09T05:09:06;18.20;98.00
18648;DHT22;9453;50.294;18.644;2023-07-09T05:11:36;18.20;98.50
18648;DHT22;9453;50.294;18.644;2023-07-09T05:14:03;18.30;98.80
18648;DHT22;9453;50.294;18.644;2023-07-09T05:16:30;18.50;98.80
18648;DHT22;9453;50.294;18.644;2023-07-09T05:18:57;18.60;98.80
18648;DHT22;9453;50.294;18.644;2023-07-09T05:21:24;18.60;98.60
18648;DHT22;9453;50.294;18.644;2023-07-09T05:23:51;18.70;98.20
18648;DHT22;9453;50.294;18.644;2023-07-09T05:26:18;18.80;98.30
18648;DHT22;9453;50.294;18.644;2023-07-09T05:28:46;18.80;97.70
18648;DHT22;9453;50.294;18.644;2023-07-09T05:31:13;19.00;97.50
18648;DHT22;9453;50.294;18.644;2023-07-09T05:33:40;19.00;97.50
18648;DHT22;9453;50.294;18.644;2023-07-09T05:36:08;19.10;97.00
18648;DHT22;9453;50.294;18.644;2023-07-09T05:38:39;19.30;97.20
18648;DHT22;9453;50.294;18.644;2023-07-09T05:41:06;19.40;96.40
18648;DHT22;9453;50.294;18.644;2023-07-09T05:43:33;19.50;96.30
18648;DHT22;9453;50.294;18.644;2023-07-09T05:46:04;19.60;96.10
18648;DHT22;9453;50.294;18.644;2023-07-09T05:48:31;19.70;95.80
18648;DHT22;9453;50.294;18.644;2023-07-09T05:50:59;19.70;95.50
18648;DHT22;9453;50.294;18.644;2023-07-09T05:53:25;19.90;95.60
18648;DHT22;9453;50.294;18.644;2023-07-09T05:55:53;20.00;95.20
18648;DHT22;9453;50.294;18.644;2023-07-09T05:58:20;20.10;94.50
18648;DHT22;9453;50.294;18.644;2023-07-09T06:00:49;20.20;93.80
18648;DHT22;9453;50.294;18.644;2023-07-09T06:03:21;20.30;93.60
18648;DHT22;9453;50.294;18.644;2023-07-09T06:05:48;20.30;93.10
18648;DHT22;9453;50.294;18.644;2023-07-09T06:08:16;20.40;93.10
18648;DHT22;9453;50.294;18.644;2023-07-09T06:10:51;20.50;92.70
18648;DHT22;9453;50.294;18.644;2023-07-09T06:13:18;20.60;92.40
18648;DHT22;9453;50.294;18.644;2023-07-09T06:15:46;20.70;91.90
18648;DHT22;9453;50.294;18.644;2023-07-09T06:18:13;20.80;91.70
18648;DHT22;9453;50.294;18.644;2023-07-09T06:20:46;20.90;91.80
18648;DHT22;9453;50.294;18.644;2023-07-09T06:23:14;20.90;91.50
18648;DHT22;9453;50.294;18.644;2023-07-09T06:25:41;21.00;91.50
18648;DHT22;9453;50.294;18.644;2023-07-09T06:28:08;21.20;91.70
18648;DHT22;9453;50.294;18.644;2023-07-09T06:30:36;21.30;91.70
18648;DHT22;9453;50.294;18.644;2023-07-09T06:33:03;21.40;91.60
18648;DHT22;9453;50.294;18.644;2023-07-09T06:35:30;21.40;91.50
18648;DHT22;9453;50.294;18.644;2023-07-09T06:37:58;21.50;91.40
18648;DHT22;9453;50.294;18.644;2023-07-09T06:40:25;21.60;91.10
18648;DHT22;9453;50.294;18.644;2023-07-09T06:42:52;21.70;91.00
18648;DHT22;9453;50.294;18.644;2023-07-09T06:45:19;21.80;91.00
18648;DHT22;9453;50.294;18.644;2023-07-09T06:47:46;21.90;91.00
18648;DHT22;9453;50.294;18.644;2023-07-09T06:50:15;21.90;91.00
18648;DHT22;9453;50.294;18.644;2023-07-09T06:52:42;22.00;90.90
18648;DHT22;9453;50.294;18.644;2023-07-09T06:55:11;22.10;90.60
18648;DHT22;9453;50.294;18.644;2023-07-09T06:57:38;22.20;90.70
18648;DHT22;9453;50.294;18.644;2023-07-09T07:00:06;22.30;90.50
18648;DHT22;9453;50.294;18.644;2023-07-09T07:02:33;22.40;90.10
18648;DHT22;9453;50.294;18.644;2023-07-09T07:05:01;22.40;89.40
18648;DHT22;9453;50.294;18.644;2023-07-09T07:07:28;22.50;88.80
18648;DHT22;9453;50.294;18.644;2023-07-09T07:09:54;22.60;87.70
18648;DHT22;9453;50.294;18.644;2023-07-09T07:12:27;22.70;87.00
18648;DHT22;9453;50.294;18.644;2023-07-09T07:14:55;22.70;86.00
18648;DHT22;9453;50.294;18.644;2023-07-09T07:17:22;22.80;83.50
18648;DHT22;9453;50.294;18.644;2023-07-09T07:19:49;22.90;82.50
18648;DHT22;9453;50.294;18.644;2023-07-09T07:22:16;23.00;82.40
18648;DHT22;9453;50.294;18.644;2023-07-09T07:24:43;23.10;81.40
18648;DHT22;9453;50.294;18.644;2023-07-09T07:27:10;23.20;81.50
18648;DHT22;9453;50.294;18.644;2023-07-09T07:29:38;23.20;81.10
18648;DHT22;9453;50.294;18.644;2023-07-09T07:32:07;23.40;80.20
18648;DHT22;9453;50.294;18.644;2023-07-09T07:34:34;23.50;77.90
18648;DHT22;9453;50.294;18.644;2023-07-09T07:37:01;23.50;77.70
18648;DHT22;9453;50.294;18.644;2023-07-09T07:39:28;23.60;77.80
18648;DHT22;9453;50.294;18.644;2023-07-09T07:41:55;23.70;76.80
18648;DHT22;9453;50.294;18.644;2023-07-09T07:44:22;23.80;75.80
18648;DHT22;9453;50.294;18.644;2023-07-09T07:46:50;23.90;76.10
18648;DHT22;9453;50.294;18.644;2023-07-09T07:49:17;24.00;77.10
18648;DHT22;9453;50.294;18.644;2023-07-09T07:51:44;24.10;77.20
18648;DHT22;9453;50.294;18.644;2023-07-09T07:54:11;24.10;77.00
18648;DHT22;9453;50.294;18.644;2023-07-09T07:56:38;24.20;76.20
18648;DHT22;9453;50.294;18.644;2023-07-09T07:59:05;24.30;74.90
18648;DHT22;9453;50.294;18.644;2023-07-09T08:01:33;24.30;74.20
18648;DHT22;9453;50.294;18.644;2023-07-09T08:04:02;24.40;73.70
18648;DHT22;9453;50.294;18.644;2023-07-09T08:06:29;24.40;72.20
18648;DHT22;9453;50.294;18.644;2023-07-09T08:08:57;24.60;70.20
18648;DHT22;9453;50.294;18.644;2023-07-09T08:11:25;24.60;69.90
18648;DHT22;9453;50.294;18.644;2023-07-09T08:13:53;24.80;69.10
18648;DHT22;9453;50.294;18.644;2023-07-09T08:16:21;24.80;69.30
18648;DHT22;9453;50.294;18.644;2023-07-09T08:18:48;24.90;69.80
18648;DHT22;9453;50.294;18.644;2023-07-09T08:21:18;25.00;69.90
18648;DHT22;9453;50.294;18.644;2023-07-09T08:23:46;25.10;68.00
18648;DHT22;9453;50.294;18.644;2023-07-09T08:26:12;25.20;68.00
18648;DHT22;9453;50.294;18.644;2023-07-09T08:28:39;25.20;68.00
18648;DHT22;9453;50.294;18.644;2023-07-09T08:31:07;25.40;68.00
18648;DHT22;9453;50.294;18.644;2023-07-09T08:33:35;25.40;66.30
18648;DHT22;9453;50.294;18.644;2023-07-09T08:36:02;25.50;63.20
18648;DHT22;9453;50.294;18.644;2023-07-09T08:38:31;25.60;60.20
18648;DHT22;9453;50.294;18.644;2023-07-09T08:41:01;25.70;59.80
18648;DHT22;9453;50.294;18.644;2023-07-09T08:43:33;25.80;58.90
18648;DHT22;9453;50.294;18.644;2023-07-09T08:46:07;25.80;57.50
18648;DHT22;9453;50.294;18.644;2023-07-09T08:48:41;25.90;57.20
18648;DHT22;9453;50.294;18.644;2023-07-09T08:51:14;26.00;56.40
18648;DHT22;9453;50.294;18.644;2023-07-09T08:53:47;26.10;56.80
18648;DHT22;9453;50.294;18.644;2023-07-09T08:56:16;26.20;55.80
18648;DHT22;9453;50.294;18.644;2023-07-09T08:58:44;26.30;51.90
18648;DHT22;9453;50.294;18.644;2023-07-09T09:01:18;26.40;52.50
18648;DHT22;9453;50.294;18.644;2023-07-09T09:03:48;26.50;52.60
18648;DHT22;9453;50.294;18.644;2023-07-09T09:06:19;26.70;52.20
18648;DHT22;9453;50.294;18.644;2023-07-09T09:08:55;26.80;50.00
18648;DHT22;9453;50.294;18.644;2023-07-09T09:11:32;27.00;50.60
18648;DHT22;9453;50.294;18.644;2023-07-09T09:14:16;27.00;50.90
18648;DHT22;9453;50.294;18.644;2023-07-09T09:16:45;27.10;50.90
18648;DHT22;9453;50.294;18.644;2023-07-09T09:19:18;27.10;52.20
18648;DHT22;9453;50.294;18.644;2023-07-09T09:21:47;27.20;51.70
18648;DHT22;9453;50.294;18.644;2023-07-09T09:24:21;27.20;51.10
18648;DHT22;9453;50.294;18.644;2023-07-09T09:26:51;27.30;50.90
18648;DHT22;9453;50.294;18.644;2023-07-09T09:29:19;27.30;50.40
18648;DHT22;9453;50.294;18.644;2023-07-09T09:31:50;27.30;49.10
18648;DHT22;9453;50.294;18.644;2023-07-09T09:34:22;27.40;50.10
18648;DHT22;9453;50.294;18.644;2023-07-09T09:36:49;27.40;50.20
18648;DHT22;9453;50.294;18.644;2023-07-09T09:39:17;27.40;50.70
18648;DHT22;9453;50.294;18.644;2023-07-09T09:41:45;27.50;51.40
18648;DHT22;9453;50.294;18.644;2023-07-09T09:44:25;27.60;50.90
18648;DHT22;9453;50.294;18.644;2023-07-09T09:46:52;27.60;50.40
18648;DHT22;9453;50.294;18.644;2023-07-09T09:49:19;27.70;50.20
18648;DHT22;9453;50.294;18.644;2023-07-09T09:51:47;27.80;50.40
18648;DHT22;9453;50.294;18.644;2023-07-09T09:54:18;27.90;50.20
18648;DHT22;9453;50.294;18.644;2023-07-09T09:56:48;27.90;48.30
18648;DHT22;9453;50.294;18.644;2023-07-09T09:59:20;27.90;48.40
18648;DHT22;9453;50.294;18.644;2023-07-09T10:01:56;28.00;49.10
18648;DHT22;9453;50.294;18.644;2023-07-09T10:04:24;28.00;49.60
18648;DHT22;9453;50.294;18.644;2023-07-09T10:06:55;28.00;49.60
18648;DHT22;9453;50.294;18.644;2023-07-09T10:09:33;28.10;50.00
18648;DHT22;9453;50.294;18.644;2023-07-09T10:12:12;28.10;49.10
18648;DHT22;9453;50.294;18.644;2023-07-09T10:14:45;28.20;45.20
18648;DHT22;9453;50.294;18.644;2023-07-09T10:17:20;28.30;46.90
18648;DHT22;9453;50.294;18.644;2023-07-09T10:19:53;28.20;47.90
18648;DHT22;9453;50.294;18.644;2023-07-09T10:22:38;28.30;48.40
18648;DHT22;9453;50.294;18.644;2023-07-09T10:25:13;28.30;48.00
18648;DHT22;9453;50.294;18.644;2023-07-09T10:27:56;28.30;48.20
18648;DHT22;9453;50.294;18.644;2023-07-09T10:30:37;28.30;47.90
18648;DHT22;9453;50.294;18.644;2023-07-09T10:33:09;28.30;44.80
18648;DHT22;9453;50.294;18.644;2023-07-09T10:35:40;28.20;44.70
18648;DHT22;9453;50.294;18.644;2023-07-09T10:38:19;28.30;46.30
18648;DHT22;9453;50.294;18.644;2023-07-09T10:40:51;28.50;46.70
18648;DHT22;9453;50.294;18.644;2023-07-09T10:43:24;28.50;42.90
18648;DHT22;9453;50.294;18.644;2023-07-09T10:45:59;28.60;43.80
18648;DHT22;9453;50.294;18.644;2023-07-09T10:48:33;28.70;43.30
18648;DHT22;9453;50.294;18.644;2023-07-09T10:51:00;28.80;44.00
18648;DHT22;9453;50.294;18.644;2023-07-09T10:53:33;28.80;45.20
18648;DHT22;9453;50.294;18.644;2023-07-09T10:56:07;28.90;43.60
18648;DHT22;9453;50.294;18.644;2023-07-09T10:58:43;28.90;43.60
18648;DHT22;9453;50.294;18.644;2023-07-09T11:01:13;29.00;44.60
18648;DHT22;9453;50.294;18.644;2023-07-09T11:03:44;29.10;45.60
18648;DHT22;9453;50.294;18.644;2023-07-09T11:06:19;29.20;43.50
18648;DHT22;9453;50.294;18.644;2023-07-09T11:08:50;29.30;43.80
18648;DHT22;9453;50.294;18.644;2023-07-09T11:11:27;29.30;45.00
18648;DHT22;9453;50.294;18.644;2023-07-09T11:13:59;29.30;42.60
18648;DHT22;9453;50.294;18.644;2023-07-09T11:16:30;29.30;43.70
18648;DHT22;9453;50.294;18.644;2023-07-09T11:19:00;29.40;43.90
18648;DHT22;9453;50.294;18.644;2023-07-09T11:21:28;29.50;43.80
18648;DHT22;9453;50.294;18.644;2023-07-09T11:23:56;29.50;43.80
18648;DHT22;9453;50.294;18.644;2023-07-09T11:26:26;29.40;42.30
18648;DHT22;9453;50.294;18.644;2023-07-09T11:29:08;29.40;42.50
18648;DHT22;9453;50.294;18.644;2023-07-09T11:31:38;29.40;41.80
18648;DHT22;9453;50.294;18.644;2023-07-09T11:34:09;29.40;43.50
18648;DHT22;9453;50.294;18.644;2023-07-09T11:36:48;29.40;44.10
18648;DHT22;9453;50.294;18.644;2023-07-09T11:39:23;29.40;42.50
18648;DHT22;9453;50.294;18.644;2023-07-09T11:41:53;29.50;43.70
18648;DHT22;9453;50.294;18.644;2023-07-09T11:44:23;29.40;43.40
18648;DHT22;9453;50.294;18.644;2023-07-09T11:47:13;29.60;44.70
18648;DHT22;9453;50.294;18.644;2023-07-09T11:49:51;29.70;44.20
18648;DHT22;9453;50.294;18.644;2023-07-09T11:52:24;29.80;44.40
18648;DHT22;9453;50.294;18.644;2023-07-09T11:54:52;29.80;44.60
18648;DHT22;9453;50.294;18.644;2023-07-09T11:57:19;29.80;44.70
18648;DHT22;9453;50.294;18.644;2023-07-09T11:59:48;29.70;44.70
18648;DHT22;9453;50.294;18.644;2023-07-09T12:02:20;29.70;44.90
18648;DHT22;9453;50.294;18.644;2023-07-09T12:04:49;29.60;44.20
18648;DHT22;9453;50.294;18.644;2023-07-09T12:07:17;29.60;44.20
18648;DHT22;9453;50.294;18.644;2023-07-09T12:09:47;29.60;44.50
18648;DHT22;9453;50.294;18.644;2023-07-09T12:12:20;29.40;43.30
18648;DHT22;9453;50.294;18.644;2023-07-09T12:14:49;29.30;44.80
18648;DHT22;9453;50.294;18.644;2023-07-09T12:17:17;29.30;44.90
18648;DHT22;9453;50.294;18.644;2023-07-09T12:19:44;29.30;45.10
18648;DHT22;9453;50.294;18.644;2023-07-09T12:22:18;29.40;45.60
18648;DHT22;9453;50.294;18.644;2023-07-09T12:24:48;29.50;44.80
18648;DHT22;9453;50.294;18.644;2023-07-09T12:27:21;29.50;44.00
18648;DHT22;9453;50.294;18.644;2023-07-09T12:29:51;29.60;43.00
18648;DHT22;9453;50.294;18.644;2023-07-09T12:32:18;29.70;43.10
18648;DHT22;9453;50.294;18.644;2023-07-09T12:34:51;29.80;42.90
18648;DHT22;9453;50.294;18.644;2023-07-09T12:37:19;30.00;43.60
18648;DHT22;9453;50.294;18.644;2023-07-09T12:39:49;30.00;42.00
18648;DHT22;9453;50.294;18.644;2023-07-09T12:42:20;30.10;41.80
18648;DHT22;9453;50.294;18.644;2023-07-09T12:44:51;30.20;42.90
18648;DHT22;9453;50.294;18.644;2023-07-09T12:47:20;30.30;41.60
18648;DHT22;9453;50.294;18.644;2023-07-09T12:49:47;30.40;42.70
18648;DHT22;9453;50.294;18.644;2023-07-09T12:52:19;30.60;41.90
18648;DHT22;9453;50.294;18.644;2023-07-09T12:54:55;30.70;40.40
18648;DHT22;9453;50.294;18.644;2023-07-09T12:57:23;31.00;40.60
18648;DHT22;9453;50.294;18.644;2023-07-09T12:59:54;31.10;38.90
18648;DHT22;9453;50.294;18.644;2023-07-09T13:02:22;31.30;39.70
18648;DHT22;9453;50.294;18.644;2023-07-09T13:04:50;31.60;40.50
18648;DHT22;9453;50.294;18.644;2023-07-09T13:07:27;31.70;39.70
18648;DHT22;9453;50.294;18.644;2023-07-09T13:09:57;31.80;38.10
18648;DHT22;9453;50.294;18.644;2023-07-09T13:12:31;31.90;38.10
18648;DHT22;9453;50.294;18.644;2023-07-09T13:15:01;31.90;37.00
18648;DHT22;9453;50.294;18.644;2023-07-09T13:17:30;31.80;37.60
18648;DHT22;9453;50.294;18.644;2023-07-09T13:19:58;32.00;37.60
18648;DHT22;9453;50.294;18.644;2023-07-09T13:22:25;32.10;38.00
18648;DHT22;9453;50.294;18.644;2023-07-09T13:24:52;32.30;38.10
18648;DHT22;9453;50.294;18.644;2023-07-09T13:27:19;32.10;38.30
18648;DHT22;9453;50.294;18.644;2023-07-09T13:29:46;32.20;38.60
18648;DHT22;9453;50.294;18.644;2023-07-09T13:32:15;32.10;38.20
18648;DHT22;9453;50.294;18.644;2023-07-09T13:34:44;32.20;38.80
18648;DHT22;9453;50.294;18.644;2023-07-09T13:37:12;32.20;37.00
18648;DHT22;9453;50.294;18.644;2023-07-09T13:39:40;32.30;37.00
18648;DHT22;9453;50.294;18.644;2023-07-09T13:42:11;32.20;36.90
18648;DHT22;9453;50.294;18.644;2023-07-09T13:44:39;32.10;35.80
18648;DHT22;9453;50.294;18.644;2023-07-09T13:47:13;32.20;37.30
18648;DHT22;9453;50.294;18.644;2023-07-09T13:49:43;32.40;37.30
18648;DHT22;9453;50.294;18.644;2023-07-09T13:52:15;32.40;36.00
18648;DHT22;9453;50.294;18.644;2023-07-09T13:54:43;32.40;36.00
18648;DHT22;9453;50.294;18.644;2023-07-09T13:57:29;32.40;35.40
18648;DHT22;9453;50.294;18.644;2023-07-09T13:59:56;32.50;36.20
18648;DHT22;9453;50.294;18.644;2023-07-09T14:02:25;32.30;36.00
18648;DHT22;9453;50.294;18.644;2023-07-09T14:04:57;32.30;35.40
18648;DHT22;9453;50.294;18.644;2023-07-09T14:07:27;32.40;34.80
18648;DHT22;9453;50.294;18.644;2023-07-09T14:09:55;32.40;34.10
18648;DHT22;9453;50.294;18.644;2023-07-09T14:12:22;32.60;34.90
18648;DHT22;9453;50.294;18.644;2023-07-09T14:14:52;32.80;35.00
18648;DHT22;9453;50.294;18.644;2023-07-09T14:17:20;33.10;35.20
18648;DHT22;9453;50.294;18.644;2023-07-09T14:19:48;33.20;34.70
18648;DHT22;9453;50.294;18.644;2023-07-09T14:22:23;33.40;36.00
18648;DHT22;9453;50.294;18.644;2023-07-09T14:24:51;33.40;35.00
18648;DHT22;9453;50.294;18.644;2023-07-09T14:27:18;33.50;34.20
18648;DHT22;9453;50.294;18.644;2023-07-09T14:29:45;33.60;33.90
18648;DHT22;9453;50.294;18.644;2023-07-09T14:32:31;33.80;33.90
18648;DHT22;9453;50.294;18.644;2023-07-09T14:34:59;33.80;33.00
18648;DHT22;9453;50.294;18.644;2023-07-09T14:37:26;33.70;32.10
18648;DHT22;9453;50.294;18.644;2023-07-09T14:39:53;33.80;33.10
18648;DHT22;9453;50.294;18.644;2023-07-09T14:42:20;34.00;32.30
18648;DHT22;9453;50.294;18.644;2023-07-09T14:44:49;34.00;32.40
18648;DHT22;9453;50.294;18.644;2023-07-09T14:47:17;33.90;32.40
18648;DHT22;9453;50.294;18.644;2023-07-09T14:49:46;34.00;32.60
18648;DHT22;9453;50.294;18.644;2023-07-09T14:52:15;33.90;31.30
18648;DHT22;9453;50.294;18.644;2023-07-09T14:54:44;34.10;31.40
18648;DHT22;9453;50.294;18.644;2023-07-09T14:57:18;34.30;32.00
18648;DHT22;9453;50.294;18.644;2023-07-09T14:59:46;34.20;31.00
18648;DHT22;9453;50.294;18.644;2023-07-09T15:02:22;34.40;31.90
18648;DHT22;9453;50.294;18.644;2023-07-09T15:04:51;34.50;30.80
18648;DHT22;9453;50.294;18.644;2023-07-09T15:07:18;34.60;31.60
18648;DHT22;9453;50.294;18.644;2023-07-09T15:09:44;34.80;32.20
18648;DHT22;9453;50.294;18.644;2023-07-09T15:12:20;34.80;32.60
18648;DHT22;9453;50.294;18.644;2023-07-09T15:14:49;34.50;31.80
18648;DHT22;9453;50.294;18.644;2023-07-09T15:17:16;34.60;32.60
18648;DHT22;9453;50.294;18.644;2023-07-09T15:19:43;34.40;31.90
18648;DHT22;9453;50.294;18.644;2023-07-09T15:22:24;34.50;33.00
18648;DHT22;9453;50.294;18.644;2023-07-09T15:24:52;34.80;34.10
18648;DHT22;9453;50.294;18.644;2023-07-09T15:27:19;34.50;32.20
18648;DHT22;9453;50.294;18.644;2023-07-09T15:29:46;34.50;32.30
18648;DHT22;9453;50.294;18.644;2023-07-09T15:32:13;34.60;33.30
18648;DHT22;9453;50.294;18.644;2023-07-09T15:34:40;34.60;33.80
18648;DHT22;9453;50.294;18.644;2023-07-09T15:37:13;34.40;32.50
18648;DHT22;9453;50.294;18.644;2023-07-09T15:39:43;34.50;33.90
18648;DHT22;9453;50.294;18.644;2023-07-09T15:42:11;34.30;33.40
18648;DHT22;9453;50.294;18.644;2023-07-09T15:44:38;34.30;32.10
18648;DHT22;9453;50.294;18.644;2023-07-09T15:47:08;34.40;32.50
18648;DHT22;9453;50.294;18.644;2023-07-09T15:49:40;34.30;31.10
18648;DHT22;9453;50.294;18.644;2023-07-09T15:52:08;34.10;30.90
18648;DHT22;9453;50.294;18.644;2023-07-09T15:54:36;33.90;30.90
18648;DHT22;9453;50.294;18.644;2023-07-09T15:57:05;33.50;31.00
18648;DHT22;9453;50.294;18.644;2023-07-09T15:59:34;33.30;31.00
18648;DHT22;9453;50.294;18.644;2023-07-09T16:02:08;33.00;32.10
18648;DHT22;9453;50.294;18.644;2023-07-09T16:04:36;32.80;32.90
18648;DHT22;9453;50.294;18.644;2023-07-09T16:07:03;32.40;33.30
18648;DHT22;9453;50.294;18.644;2023-07-09T16:09:30;32.10;33.50
18648;DHT22;9453;50.294;18.644;2023-07-09T16:11:57;31.80;33.10
18648;DHT22;9453;50.294;18.644;2023-07-09T16:14:27;31.40;34.10
18648;DHT22;9453;50.294;18.644;2023-07-09T16:16:56;31.30;34.70
18648;DHT22;9453;50.294;18.644;2023-07-09T16:19:25;31.00;34.60
18648;DHT22;9453;50.294;18.644;2023-07-09T16:21:54;30.80;34.40
18648;DHT22;9453;50.294;18.644;2023-07-09T16:24:25;30.60;35.50
18648;DHT22;9453;50.294;18.644;2023-07-09T16:26:53;30.60;35.90
18648;DHT22;9453;50.294;18.644;2023-07-09T16:29:23;30.60;35.30
18648;DHT22;9453;50.294;18.644;2023-07-09T16:31:53;30.70;34.90
18648;DHT22;9453;50.294;18.644;2023-07-09T16:34:21;30.80;34.40
18648;DHT22;9453;50.294;18.644;2023-07-09T16:36:48;30.60;34.60
18648;DHT22;9453;50.294;18.644;2023-07-09T16:39:27;30.50;35.50
18648;DHT22;9453;50.294;18.644;2023-07-09T16:41:55;30.30;35.20
18648;DHT22;9453;50.294;18.644;2023-07-09T16:44:22;30.10;35.30
18648;DHT22;9453;50.294;18.644;2023-07-09T16:46:50;29.90;35.40
18648;DHT22;9453;50.294;18.644;2023-07-09T16:49:35;29.90;35.90
18648;DHT22;9453;50.294;18.644;2023-07-09T16:52:05;29.80;35.40
18648;DHT22;9453;50.294;18.644;2023-07-09T16:54:35;29.60;35.80
18648;DHT22;9453;50.294;18.644;2023-07-09T16:57:02;29.50;36.30
18648;DHT22;9453;50.294;18.644;2023-07-09T16:59:29;29.40;36.50
18648;DHT22;9453;50.294;18.644;2023-07-09T17:01:56;29.40;37.20
18648;DHT22;9453;50.294;18.644;2023-07-09T17:04:24;29.30;37.70
18648;DHT22;9453;50.294;18.644;2023-07-09T17:06:54;29.20;37.90
18648;DHT22;9453;50.294;18.644;2023-07-09T17:09:22;29.20;38.50
18648;DHT22;9453;50.294;18.644;2023-07-09T17:11:55;29.20;38.50
18648;DHT22;9453;50.294;18.644;2023-07-09T17:14:23;29.20;38.40
18648;DHT22;9453;50.294;18.644;2023-07-09T17:16:50;29.10;39.20
18648;DHT22;9453;50.294;18.644;2023-07-09T17:19:17;29.10;38.30
18648;DHT22;9453;50.294;18.644;2023-07-09T17:21:46;29.00;39.10
18648;DHT22;9453;50.294;18.644;2023-07-09T17:24:21;29.00;39.50
18648;DHT22;9453;50.294;18.644;2023-07-09T17:26:49;28.90;39.60
18648;DHT22;9453;50.294;18.644;2023-07-09T17:29:17;28.80;40.30
18648;DHT22;9453;50.294;18.644;2023-07-09T17:31:45;28.70;38.70
18648;DHT22;9453;50.294;18.644;2023-07-09T17:34:12;28.60;39.30
18648;DHT22;9453;50.294;18.644;2023-07-09T17:36:40;28.50;40.10
18648;DHT22;9453;50.294;18.644;2023-07-09T17:39:16;28.40;40.20
18648;DHT22;9453;50.294;18.644;2023-07-09T17:41:46;28.30;40.00
18648;DHT22;9453;50.294;18.644;2023-07-09T17:44:16;28.20;40.10
18648;DHT22;9453;50.294;18.644;2023-07-09T17:46:44;28.10;40.10
18648;DHT22;9453;50.294;18.644;2023-07-09T17:49:15;28.10;40.70
18648;DHT22;9453;50.294;18.644;2023-07-09T17:51:43;28.00;41.00
18648;DHT22;9453;50.294;18.644;2023-07-09T17:54:14;27.80;41.20
18648;DHT22;9453;50.294;18.644;2023-07-09T17:56:42;27.80;40.80
18648;DHT22;9453;50.294;18.644;2023-07-09T17:59:14;27.70;41.80
18648;DHT22;9453;50.294;18.644;2023-07-09T18:01:42;27.60;42.10
18648;DHT22;9453;50.294;18.644;2023-07-09T18:04:15;27.50;42.70
18648;DHT22;9453;50.294;18.644;2023-07-09T18:06:45;27.40;43.20
18648;DHT22;9453;50.294;18.644;2023-07-09T18:09:15;27.30;43.50
18648;DHT22;9453;50.294;18.644;2023-07-09T18:11:44;27.20;44.40
18648;DHT22;9453;50.294;18.644;2023-07-09T18:14:19;27.00;44.70
18648;DHT22;9453;50.294;18.644;2023-07-09T18:16:47;27.00;44.30
18648;DHT22;9453;50.294;18.644;2023-07-09T18:19:21;26.90;45.10
18648;DHT22;9453;50.294;18.644;2023-07-09T18:21:49;26.70;45.40
18648;DHT22;9453;50.294;18.644;2023-07-09T18:24:17;26.60;45.30
18648;DHT22;9453;50.294;18.644;2023-07-09T18:26:45;26.50;45.70
18648;DHT22;9453;50.294;18.644;2023-07-09T18:29:24;26.50;46.40
18648;DHT22;9453;50.294;18.644;2023-07-09T18:31:52;26.30;46.40
18648;DHT22;9453;50.294;18.644;2023-07-09T18:34:19;26.20;46.10
18648;DHT22;9453;50.294;18.644;2023-07-09T18:36:46;26.10;45.80
18648;DHT22;9453;50.294;18.644;2023-07-09T18:39:13;26.10;46.30
18648;DHT22;9453;50.294;18.644;2023-07-09T18:41:40;26.00;46.50
18648;DHT22;9453;50.294;18.644;2023-07-09T18:44:15;25.90;46.70
18648;DHT22;9453;50.294;18.644;2023-07-09T18:46:44;25.80;47.20
18648;DHT22;9453;50.294;18.644;2023-07-09T18:49:12;25.70;47.70
18648;DHT22;9453;50.294;18.644;2023-07-09T18:51:39;25.50;49.00
18648;DHT22;9453;50.294;18.644;2023-07-09T18:54:12;25.50;49.50
18648;DHT22;9453;50.294;18.644;2023-07-09T18:56:41;25.40;49.40
18648;DHT22;9453;50.294;18.644;2023-07-09T18:59:13;25.30;49.50
18648;DHT22;9453;50.294;18.644;2023-07-09T19:01:41;25.20;49.90
18648;DHT22;9453;50.294;18.644;2023-07-09T19:04:15;25.10;50.40
18648;DHT22;9453;50.294;18.644;2023-07-09T19:06:44;25.00;50.80
18648;DHT22;9453;50.294;18.644;2023-07-09T19:09:17;24.90;51.00
18648;DHT22;9453;50.294;18.644;2023-07-09T19:11:44;24.80;51.60
18648;DHT22;9453;50.294;18.644;2023-07-09T19:14:13;24.70;52.30
18648;DHT22;9453;50.294;18.644;2023-07-09T19:16:43;24.60;52.80
18648;DHT22;9453;50.294;18.644;2023-07-09T19:19:14;24.60;53.10
18648;DHT22;9453;50.294;18.644;2023-07-09T19:21:45;24.40;52.60
18648;DHT22;9453;50.294;18.644;2023-07-09T19:24:19;24.40;52.90
18648;DHT22;9453;50.294;18.644;2023-07-09T19:26:47;24.30;53.50
18648;DHT22;9453;50.294;18.644;2023-07-09T19:29:15;24.20;53.90
18648;DHT22;9453;50.294;18.644;2023-07-09T19:31:43;24.10;54.50
18648;DHT22;9453;50.294;18.644;2023-07-09T19:34:18;24.00;54.70
18648;DHT22;9453;50.294;18.644;2023-07-09T19:36:47;23.90;54.90
18648;DHT22;9453;50.294;18.644;2023-07-09T19:39:25;23.90;55.00
18648;DHT22;9453;50.294;18.644;2023-07-09T19:41:58;23.80;55.40
18648;DHT22;9453;50.294;18.644;2023-07-09T19:44:25;23.70;56.00
18648;DHT22;9453;50.294;18.644;2023-07-09T19:46:52;23.70;56.40